createdAt,value
2019-04-04T00:01:29.970Z,38.43
2019-04-04T00:03:33.818Z,41.30
2019-04-04T00:05:37.698Z,29.90
2019-04-04T00:07:41.552Z,32.30
2019-04-04T00:09:45.423Z,32.33
2019-04-04T00:11:49.409Z,32.87
2019-04-04T00:13:53.363Z,35.60
2019-04-04T00:15:57.243Z,40.23
2019-04-04T00:18:01.175Z,26.87
2019-04-04T00:20:05.312Z,24.70
2019-04-04T00:22:09.217Z,28.90
2019-04-04T00:24:13.041Z,32.77
2019-04-04T00:26:16.926Z,35.50
2019-04-04T00:28:20.867Z,29.60
2019-04-04T00:30:24.704Z,24.33
2019-04-04T00:32:28.623Z,26.23
2019-04-04T00:34:32.655Z,12.80
2019-04-04T00:36:36.567Z,19.10
2019-04-04T00:38:40.461Z,30.07
2019-04-04T00:40:44.379Z,25.73
2019-04-04T00:42:48.380Z,24.97
2019-04-04T00:44:55.488Z,20.77
2019-04-04T00:46:58.037Z,20.63
2019-04-04T00:49:04.486Z,29.13
2019-04-04T00:51:08.025Z,21.23
2019-04-04T00:53:12.523Z,22.43
2019-04-04T00:55:16.470Z,21.27
2019-04-04T00:57:20.363Z,23.10
2019-04-04T00:59:24.245Z,18.80
2019-04-04T01:01:28.086Z,18.40
2019-04-04T01:03:31.976Z,20.30
2019-04-04T01:05:35.875Z,11.97
2019-04-04T01:07:39.723Z,19.83
2019-04-04T01:09:43.599Z,14.97
2019-04-04T01:11:50.968Z,17.43
2019-04-04T01:13:53.459Z,23.77
2019-04-04T01:15:57.283Z,38.77
2019-04-04T01:18:01.200Z,25.77
2019-04-04T01:20:08.427Z,25.80
2019-04-04T01:22:12.255Z,19.80
2019-04-04T01:24:16.134Z,16.13
2019-04-04T01:26:20.039Z,17.20
2019-04-04T01:28:23.955Z,21.77
2019-04-04T01:30:27.799Z,16.30
2019-04-04T01:32:31.637Z,20.63
2019-04-04T01:34:35.647Z,17.10
2019-04-04T01:36:39.509Z,11.87
2019-04-04T01:38:43.458Z,13.00
2019-04-04T01:40:47.359Z,19.67
2019-04-04T01:42:51.380Z,20.47
2019-04-04T01:44:55.210Z,10.67
2019-04-04T01:46:59.059Z,25.40
2019-04-04T01:49:03.023Z,14.63
2019-04-04T01:51:07.910Z,16.13
2019-04-04T01:53:12.036Z,19.50
2019-04-04T01:55:15.917Z,16.03
2019-04-04T01:57:39.473Z,21.30
2019-04-04T01:59:43.842Z,18.50
2019-04-04T02:01:48.392Z,19.70
2019-04-04T02:03:53.664Z,12.30
2019-04-04T02:06:00.863Z,18.40
2019-04-04T02:08:04.887Z,20.00
2019-04-04T02:10:08.948Z,20.70
2019-04-04T02:12:12.996Z,21.60
2019-04-04T02:14:19.422Z,20.83
2019-04-04T02:16:22.847Z,22.67
2019-04-04T02:18:26.752Z,23.77
2019-04-04T02:20:30.636Z,21.93
2019-04-04T02:22:34.526Z,18.97
2019-04-04T02:24:38.349Z,18.27
2019-04-04T02:26:42.721Z,23.57
2019-04-04T02:28:46.852Z,24.73
2019-04-04T02:30:50.992Z,21.40
2019-04-04T02:32:59.449Z,23.13
2019-04-04T02:35:00.680Z,20.43
2019-04-04T02:37:04.552Z,19.80
2019-04-04T02:39:11.036Z,20.03
2019-04-04T02:41:15.434Z,22.20
2019-04-04T02:43:20.437Z,21.67
2019-04-04T02:45:24.366Z,26.57
2019-04-04T02:47:31.052Z,25.27
2019-04-04T02:49:34.908Z,24.97
2019-04-04T02:51:41.174Z,22.87
2019-04-04T02:53:44.482Z,19.70
2019-04-04T02:55:48.792Z,22.20
2019-04-04T02:57:52.723Z,24.30
2019-04-04T02:59:57.004Z,33.17
2019-04-04T03:02:04.732Z,24.20
2019-04-04T03:04:06.572Z,22.03
2019-04-04T03:06:10.556Z,21.53
2019-04-04T03:08:14.547Z,21.63
2019-04-04T03:10:18.522Z,26.80
2019-04-04T03:12:25.737Z,21.23
2019-04-04T03:14:28.302Z,30.33
2019-04-04T03:16:34.325Z,25.47
2019-04-04T03:18:38.333Z,24.60
2019-04-04T03:21:02.013Z,28.07
2019-04-04T03:23:05.950Z,23.03
2019-04-04T03:25:14.204Z,24.17
2019-04-04T03:27:15.851Z,22.07
2019-04-04T03:29:20.156Z,25.27
2019-04-04T03:31:24.441Z,24.73
2019-04-04T03:33:31.521Z,23.27
2019-04-04T03:35:34.094Z,24.13
2019-04-04T03:37:40.606Z,24.80
2019-04-04T03:39:43.671Z,24.70
2019-04-04T03:41:47.586Z,22.17
2019-04-04T03:43:51.449Z,23.70
2019-04-04T03:46:00.356Z,22.63
2019-04-04T03:48:01.148Z,22.30
2019-04-04T03:50:05.931Z,24.37
2019-04-04T03:52:11.210Z,21.47
2019-04-04T03:54:22.228Z,19.63
2019-04-04T03:56:25.324Z,29.23
2019-04-04T03:58:29.149Z,25.90
2019-04-04T04:00:33.466Z,25.43
2019-04-04T04:02:37.366Z,27.40
2019-04-04T04:04:41.298Z,22.13
2019-04-04T04:06:45.190Z,22.17
2019-04-04T04:08:49.011Z,23.20
2019-04-04T04:10:55.001Z,22.20
2019-04-04T04:12:58.956Z,21.33
2019-04-04T04:15:02.795Z,24.00
2019-04-04T04:17:09.068Z,28.97
2019-04-04T04:19:12.420Z,30.37
2019-04-04T04:21:16.592Z,32.87
2019-04-04T04:23:22.899Z,28.03
2019-04-04T04:25:26.137Z,28.70
2019-04-04T04:27:29.963Z,33.47
2019-04-04T04:29:33.831Z,32.23
2019-04-04T04:31:37.683Z,31.90
2019-04-04T04:33:41.579Z,29.53
2019-04-04T04:35:45.563Z,26.60
2019-04-04T04:37:52.111Z,32.07
2019-04-04T04:39:55.024Z,34.23
2019-04-04T04:41:59.097Z,22.77
2019-04-04T04:44:05.607Z,25.90
2019-04-04T04:46:08.571Z,27.03
2019-04-04T04:48:12.396Z,30.17
2019-04-04T04:50:16.315Z,28.80
2019-04-04T04:52:20.188Z,25.57
2019-04-04T04:54:24.292Z,27.50
2019-04-04T04:56:30.975Z,24.40
2019-04-04T04:58:33.862Z,28.93
2019-04-04T05:00:37.735Z,30.33
2019-04-04T05:02:41.557Z,31.30
2019-04-04T05:04:45.462Z,28.23
2019-04-04T05:06:49.786Z,26.80
2019-04-04T05:08:53.611Z,16.07
2019-04-04T05:10:57.478Z,27.87
2019-04-04T05:13:01.345Z,20.60
2019-04-04T05:15:06.015Z,30.00
2019-04-04T05:17:10.127Z,27.07
2019-04-04T05:19:14.863Z,30.70
2019-04-04T05:21:24.945Z,27.87
2019-04-04T05:23:24.260Z,5.37
2019-04-04T05:25:30.870Z,22.67
2019-04-04T05:27:35.104Z,28.33
2019-04-04T05:29:39.369Z,28.10
2019-04-04T05:31:43.229Z,32.37
2019-04-04T05:33:47.183Z,26.43
2019-04-04T05:35:51.076Z,29.00
2019-04-04T05:37:54.945Z,31.20
2019-04-04T05:39:58.800Z,30.53
2019-04-04T05:42:02.793Z,33.97
2019-04-04T05:44:09.021Z,33.97
2019-04-04T05:46:31.648Z,22.90
2019-04-04T05:48:35.487Z,28.03
2019-04-04T05:50:39.352Z,21.00
2019-04-04T05:52:43.387Z,27.63
2019-04-04T05:54:47.371Z,28.83
2019-04-04T05:56:51.231Z,28.53
2019-04-04T05:58:55.092Z,36.53
2019-04-04T06:01:01.524Z,36.90
2019-04-04T06:03:04.910Z,32.60
2019-04-04T06:05:08.874Z,28.97
2019-04-04T06:07:12.739Z,40.67
2019-04-04T06:09:16.566Z,29.33
2019-04-04T06:11:21.673Z,24.77
2019-04-04T06:13:26.955Z,27.20
2019-04-04T06:15:32.204Z,30.37
2019-04-04T06:17:38.869Z,32.57
2019-04-04T06:19:44.374Z,20.67
2019-04-04T06:21:47.882Z,27.90
2019-04-04T06:23:55.661Z,23.83
2019-04-04T06:25:59.341Z,31.33
2019-04-04T06:28:03.482Z,29.03
2019-04-04T06:30:07.923Z,30.03
2019-04-04T06:32:11.767Z,31.07
2019-04-04T06:34:15.615Z,27.60
2019-04-04T06:36:19.464Z,12.10
2019-04-04T06:38:24.168Z,21.60
2019-04-04T06:40:30.237Z,19.83
2019-04-04T06:42:36.208Z,12.97
2019-04-04T06:44:39.533Z,24.90
2019-04-04T06:46:43.364Z,22.80
2019-04-04T06:48:47.351Z,27.33
2019-04-04T06:50:51.175Z,20.90
2019-04-04T06:52:56.566Z,23.27
2019-04-04T06:55:01.035Z,20.00
2019-04-04T06:57:05.034Z,26.80
2019-04-04T06:59:11.355Z,24.93
2019-04-04T07:01:14.582Z,20.73
2019-04-04T07:03:18.434Z,18.97
2019-04-04T07:05:22.282Z,26.23
2019-04-04T07:07:26.188Z,12.23
2019-04-04T07:09:30.021Z,17.33
2019-04-04T07:11:35.113Z,21.97
2019-04-04T07:13:42.588Z,14.37
2019-04-04T07:15:48.309Z,17.77
2019-04-04T07:17:51.356Z,21.60
2019-04-04T07:19:55.199Z,25.00
2019-04-04T07:21:59.115Z,24.60
2019-04-04T07:24:03.047Z,27.03
2019-04-04T07:26:07.075Z,22.47
2019-04-04T07:28:10.959Z,25.10
2019-04-04T07:30:15.541Z,21.30
2019-04-04T07:32:19.685Z,22.50
2019-04-04T07:34:23.511Z,24.00
2019-04-04T07:36:27.431Z,26.57
2019-04-04T07:38:31.260Z,19.60
2019-04-04T07:40:37.070Z,25.17
2019-04-04T07:42:40.859Z,21.37
2019-04-04T07:44:44.847Z,19.63
2019-04-04T07:46:48.719Z,16.80
2019-04-04T07:48:52.550Z,15.70
2019-04-04T07:50:58.670Z,13.20
2019-04-04T07:53:04.240Z,26.60
2019-04-04T07:55:10.252Z,19.73
2019-04-04T07:57:13.698Z,19.13
2019-04-04T07:59:17.567Z,20.70
2019-04-04T08:01:21.404Z,19.97
2019-04-04T08:03:25.228Z,17.10
2019-04-04T08:05:29.063Z,21.07
2019-04-04T08:07:32.904Z,13.43
2019-04-04T08:09:36.715Z,16.63
2019-04-04T08:11:40.615Z,24.37
2019-04-04T08:13:44.592Z,34.73
2019-04-04T08:15:48.435Z,33.90
2019-04-04T08:17:52.347Z,18.17
2019-04-04T08:19:59.859Z,14.50
2019-04-04T08:22:01.965Z,31.17
2019-04-04T08:24:06.145Z,22.93
2019-04-04T08:26:10.258Z,28.17
2019-04-04T08:28:14.247Z,30.13
2019-04-04T08:30:18.219Z,16.73
2019-04-04T08:32:22.099Z,20.50
2019-04-04T08:34:25.935Z,24.03
2019-04-04T08:36:29.777Z,18.93
2019-04-04T08:38:33.839Z,14.63
2019-04-04T08:40:37.747Z,22.10
2019-04-04T08:42:41.591Z,19.47
2019-04-04T08:44:45.472Z,19.10
2019-04-04T08:46:49.683Z,22.87
2019-04-04T08:48:54.022Z,19.50
2019-04-04T08:50:57.919Z,13.50
2019-04-04T08:53:01.747Z,17.40
2019-04-04T08:55:06.369Z,19.50
2019-04-04T08:57:10.178Z,17.97
2019-04-04T08:59:14.035Z,14.60
2019-04-04T09:01:17.966Z,14.40
2019-04-04T09:03:21.875Z,18.23
2019-04-04T09:05:25.741Z,15.20
2019-04-04T09:07:29.692Z,16.07
2019-04-04T09:09:34.824Z,15.13
2019-04-04T09:11:38.879Z,16.83
2019-04-04T09:13:42.731Z,21.73
2019-04-04T09:15:46.631Z,12.17
2019-04-04T09:17:50.632Z,23.00
2019-04-04T09:19:54.540Z,14.97
2019-04-04T09:21:58.724Z,16.23
2019-04-04T09:24:02.542Z,14.90
2019-04-04T09:26:06.555Z,18.50
2019-04-04T09:28:10.824Z,16.43
2019-04-04T09:30:15.143Z,19.37
2019-04-04T09:32:19.059Z,17.27
2019-04-04T09:34:23.061Z,17.13
2019-04-04T09:36:26.887Z,16.43
2019-04-04T09:38:30.719Z,18.80
2019-04-04T09:40:34.699Z,18.80
2019-04-04T09:42:38.979Z,18.93
2019-04-04T09:44:42.895Z,14.50
2019-04-04T09:46:46.899Z,16.70
2019-04-04T09:48:50.843Z,16.00
2019-04-04T09:50:54.812Z,16.50
2019-04-04T09:52:59.053Z,8.67
2019-04-04T09:55:03.157Z,10.73
2019-04-04T09:57:06.984Z,13.60
2019-04-04T09:59:10.939Z,11.83
2019-04-04T10:01:14.968Z,15.30
2019-04-04T10:03:18.977Z,16.17
2019-04-04T10:05:23.091Z,12.07
2019-04-04T10:07:27.092Z,17.63
2019-04-04T10:09:30.976Z,14.00
2019-04-04T10:11:34.844Z,21.83
2019-04-04T10:13:38.687Z,12.97
2019-04-04T10:15:42.851Z,15.40
2019-04-04T10:17:49.187Z,17.37
2019-04-04T10:19:52.755Z,12.70
2019-04-04T10:21:56.664Z,15.40
2019-04-04T10:24:00.523Z,17.23
2019-04-04T10:26:04.598Z,12.10
2019-04-04T10:28:08.668Z,15.87
2019-04-04T10:30:13.336Z,14.57
2019-04-04T10:32:17.377Z,9.10
2019-04-04T10:34:21.255Z,14.87
2019-04-04T10:36:25.105Z,12.80
2019-04-04T10:38:29.039Z,13.20
2019-04-04T10:40:32.974Z,11.90
2019-04-04T10:42:36.894Z,13.20
2019-04-04T10:44:40.822Z,16.27
2019-04-04T10:46:44.727Z,16.00
2019-04-04T10:48:48.690Z,16.30
2019-04-04T10:50:52.528Z,14.40
2019-04-04T10:52:56.379Z,18.60
2019-04-04T10:55:01.687Z,13.10
2019-04-04T10:57:05.799Z,16.47
2019-04-04T10:59:09.635Z,14.57
2019-04-04T11:01:13.631Z,18.40
2019-04-04T11:03:19.634Z,16.90
2019-04-04T11:05:26.526Z,13.37
2019-04-04T11:07:35.199Z,20.63
2019-04-04T11:09:42.089Z,14.53
2019-04-04T11:11:45.328Z,18.87
2019-04-04T11:13:49.256Z,16.57
2019-04-04T11:15:53.170Z,20.23
2019-04-04T11:17:57.033Z,21.80
2019-04-04T11:20:01.339Z,18.30
2019-04-04T11:22:05.330Z,13.73
2019-04-04T11:24:09.176Z,19.10
2019-04-04T11:26:14.835Z,19.83
2019-04-04T11:28:18.684Z,18.77
2019-04-04T11:30:22.725Z,15.27
2019-04-04T11:32:26.668Z,19.67
2019-04-04T11:34:34.542Z,21.17
2019-04-04T11:36:38.371Z,17.30
2019-04-04T11:38:44.181Z,16.93
2019-04-04T11:40:47.799Z,21.60
2019-04-04T11:42:51.953Z,21.23
2019-04-04T11:44:55.857Z,17.30
2019-04-04T11:46:59.678Z,19.20
2019-04-04T11:49:03.604Z,20.10
2019-04-04T11:51:07.511Z,18.63
2019-04-04T11:53:11.478Z,18.63
2019-04-04T11:55:15.321Z,19.53
2019-04-04T11:57:19.259Z,18.93
2019-04-04T11:59:23.109Z,20.87
2019-04-04T12:01:27.539Z,22.83
2019-04-04T12:03:31.409Z,19.13
2019-04-04T12:05:35.426Z,17.50
2019-04-04T12:07:39.261Z,23.80
2019-04-04T12:09:43.155Z,22.63
2019-04-04T12:11:46.979Z,18.27
2019-04-04T12:13:50.952Z,18.30
2019-04-04T12:15:54.901Z,18.10
2019-04-04T12:17:59.093Z,21.60
2019-04-04T12:20:03.059Z,26.63
2019-04-04T12:22:06.991Z,20.93
2019-04-04T12:24:10.847Z,17.40
2019-04-04T12:26:14.799Z,17.00
2019-04-04T12:28:18.663Z,19.93
2019-04-04T12:30:22.687Z,21.33
2019-04-04T12:32:26.500Z,17.13
2019-04-04T12:34:30.415Z,22.53
2019-04-04T12:36:34.345Z,20.50
2019-04-04T12:38:38.182Z,19.20
2019-04-04T12:40:42.028Z,20.87
2019-04-04T12:42:46.015Z,21.80
2019-04-04T12:44:49.943Z,28.70
2019-04-04T12:46:53.801Z,26.27
2019-04-04T12:48:57.720Z,27.27
2019-04-04T12:51:01.584Z,24.43
2019-04-04T12:53:05.535Z,28.60
2019-04-04T12:55:09.715Z,25.83
2019-04-04T12:57:13.608Z,32.70
2019-04-04T12:59:17.688Z,29.10
2019-04-04T13:01:21.669Z,29.30
2019-04-04T13:03:25.595Z,27.67
2019-04-04T13:05:29.465Z,30.30
2019-04-04T13:07:33.396Z,25.80
2019-04-04T13:09:37.302Z,27.83
2019-04-04T13:11:41.200Z,24.33
2019-04-04T13:13:45.023Z,26.50
2019-04-04T13:15:48.859Z,28.87
2019-04-04T13:17:52.735Z,28.37
2019-04-04T13:19:56.663Z,26.60
2019-04-04T13:22:00.571Z,29.53
2019-04-04T13:24:08.849Z,26.33
2019-04-04T13:26:12.747Z,21.83
2019-04-04T13:28:16.598Z,29.90
2019-04-04T13:30:20.708Z,26.63
2019-04-04T13:32:24.587Z,22.50
2019-04-04T13:34:28.475Z,21.60
2019-04-04T13:36:32.434Z,25.27
2019-04-04T13:38:36.387Z,19.17
2019-04-04T13:40:45.608Z,21.47
2019-04-04T13:42:45.813Z,20.80
2019-04-04T13:44:50.614Z,18.20
2019-04-04T13:46:55.319Z,23.17
2019-04-04T13:48:59.680Z,25.83
2019-04-04T13:51:03.634Z,18.27
2019-04-04T13:53:07.664Z,21.43
2019-04-04T13:55:11.585Z,23.70
2019-04-04T13:57:15.511Z,22.90
2019-04-04T13:59:19.756Z,24.92
2019-04-04T14:01:25.385Z,20.63
2019-04-04T14:03:29.443Z,24.23
2019-04-04T14:05:33.691Z,19.97
2019-04-04T14:07:37.675Z,20.90
2019-04-04T14:09:44.392Z,20.03
2019-04-04T14:11:47.623Z,11.87
2019-04-04T14:13:52.536Z,17.57
2019-04-04T14:15:56.479Z,25.10
2019-04-04T14:18:00.388Z,24.50
2019-04-04T14:20:04.823Z,19.70
2019-04-04T14:22:08.802Z,21.20
2019-04-04T14:24:14.376Z,13.40
2019-04-04T14:26:18.452Z,17.57
2019-04-04T14:28:22.463Z,23.80
2019-04-04T14:30:26.706Z,20.97
2019-04-04T14:32:30.622Z,24.50
2019-04-04T14:34:34.581Z,22.83
2019-04-04T14:36:38.703Z,19.30
2019-04-04T14:38:42.689Z,23.20
2019-04-04T14:40:46.759Z,21.20
2019-04-04T14:42:50.624Z,23.20
2019-04-04T14:44:54.500Z,23.00
2019-04-04T14:46:58.349Z,21.23
2019-04-04T14:49:02.437Z,21.90
2019-04-04T14:51:06.343Z,22.33
2019-04-04T14:53:10.527Z,21.07
2019-04-04T14:55:14.542Z,19.53
2019-04-04T14:57:18.377Z,21.87
2019-04-04T14:59:22.254Z,20.57
2019-04-04T15:01:26.184Z,23.60
2019-04-04T15:03:30.070Z,17.43
2019-04-04T15:05:34.063Z,17.03
2019-04-04T15:07:38.268Z,23.70
2019-04-04T15:09:42.099Z,18.60
2019-04-04T15:11:46.011Z,21.53
2019-04-04T15:13:49.931Z,17.23
2019-04-04T15:16:13.700Z,21.43
2019-04-04T15:18:17.579Z,27.17
2019-04-04T15:20:21.567Z,22.80
2019-04-04T15:22:25.493Z,26.53
2019-04-04T15:24:29.342Z,34.30
2019-04-04T15:26:33.311Z,31.20
2019-04-04T15:28:37.389Z,30.33
2019-04-04T15:30:41.320Z,26.83
2019-04-04T15:32:45.191Z,25.60
2019-04-04T15:34:49.092Z,27.33
2019-04-04T15:36:53.003Z,24.57
2019-04-04T15:38:56.910Z,29.17
2019-04-04T15:41:00.983Z,29.00
2019-04-04T15:43:04.976Z,27.13
2019-04-04T15:45:09.237Z,29.30
2019-04-04T15:47:13.308Z,29.17
2019-04-04T15:49:17.233Z,28.47
2019-04-04T15:51:21.271Z,32.03
2019-04-04T15:53:25.159Z,25.90
2019-04-04T15:55:29.055Z,35.47
2019-04-04T15:57:32.988Z,29.70
2019-04-04T15:59:40.051Z,30.57
2019-04-04T16:01:44.267Z,27.73
2019-04-04T16:03:48.135Z,30.60
2019-04-04T16:05:52.052Z,29.17
2019-04-04T16:07:55.960Z,34.47
2019-04-04T16:10:00.183Z,38.70
2019-04-04T16:12:04.192Z,34.53
2019-04-04T16:14:08.412Z,33.17
2019-04-04T16:16:12.377Z,30.17
2019-04-04T16:18:16.223Z,31.13
2019-04-04T16:20:20.224Z,32.93
2019-04-04T16:22:24.135Z,34.00
2019-04-04T16:24:27.968Z,32.93
2019-04-04T16:26:32.363Z,30.53
2019-04-04T16:28:36.280Z,34.80
2019-04-04T16:30:40.136Z,34.23
2019-04-04T16:32:44.024Z,37.10
2019-04-04T16:34:47.876Z,34.97
2019-04-04T16:36:51.782Z,37.50
2019-04-04T16:38:55.767Z,29.50
2019-04-04T16:41:00.547Z,37.80
2019-04-04T16:43:04.866Z,37.30
2019-04-04T16:45:09.263Z,38.03
2019-04-04T16:47:13.155Z,33.27
2019-04-04T16:49:16.982Z,38.77
2019-04-04T16:51:20.839Z,32.10
2019-04-04T16:53:24.831Z,31.50
2019-04-04T16:55:28.787Z,36.87
2019-04-04T16:57:32.988Z,31.80
2019-04-04T16:59:36.871Z,34.80
2019-04-04T17:01:40.754Z,32.57
2019-04-04T17:03:44.671Z,33.90
2019-04-04T17:05:48.530Z,38.10
2019-04-04T17:07:52.480Z,34.90
2019-04-04T17:09:56.315Z,32.10
2019-04-04T17:12:00.225Z,30.70
2019-04-04T17:14:04.271Z,31.03
2019-04-04T17:16:08.180Z,30.23
2019-04-04T17:18:12.105Z,37.63
2019-04-04T17:20:16.475Z,33.73
2019-04-04T17:22:20.317Z,32.70
2019-04-04T17:24:24.145Z,28.37
2019-04-04T17:26:28.011Z,27.87
2019-04-04T17:28:31.910Z,28.60
2019-04-04T17:30:35.928Z,27.80
2019-04-04T17:32:40.953Z,24.37
2019-04-04T17:34:44.903Z,15.57
2019-04-04T17:36:49.229Z,32.27
2019-04-04T17:38:55.043Z,15.77
2019-04-04T17:40:59.061Z,12.70
2019-04-04T17:43:03.484Z,21.27
2019-04-04T17:45:08.207Z,12.70
2019-04-04T17:47:12.386Z,13.57
2019-04-04T17:49:17.002Z,16.03
2019-04-04T17:51:20.979Z,17.40
2019-04-04T17:53:24.851Z,21.50
2019-04-04T17:55:28.751Z,8.27
2019-04-04T17:57:32.784Z,20.17
2019-04-04T17:59:36.738Z,20.67
2019-04-04T18:01:41.551Z,23.00
2019-04-04T18:03:45.703Z,17.10
2019-04-04T18:05:49.631Z,18.67
2019-04-04T18:07:53.575Z,12.27
2019-04-04T18:09:57.831Z,17.53
2019-04-04T18:12:01.675Z,16.87
2019-04-04T18:14:05.835Z,17.87
2019-04-04T18:16:09.854Z,18.00
2019-04-04T18:18:13.747Z,12.57
2019-04-04T18:20:17.725Z,10.57
2019-04-04T18:22:21.640Z,17.13
2019-04-04T18:24:25.469Z,20.10
2019-04-04T18:26:29.460Z,12.57
2019-04-04T18:28:33.551Z,16.33
2019-04-04T18:30:37.504Z,17.00
2019-04-04T18:32:41.334Z,19.43
2019-04-04T18:34:45.410Z,12.27
2019-04-04T18:36:49.752Z,13.80
2019-04-04T18:38:54.105Z,17.95
2019-04-04T18:40:57.959Z,15.80
2019-04-04T18:43:01.841Z,16.90
2019-04-04T18:45:06.363Z,21.10
2019-04-04T18:47:10.295Z,14.40
2019-04-04T18:49:14.160Z,15.90
2019-04-04T18:51:18.103Z,19.40
2019-04-04T18:53:22.058Z,10.97
2019-04-04T18:55:25.906Z,19.87
2019-04-04T18:57:29.871Z,14.90
2019-04-04T18:59:33.749Z,18.87
2019-04-04T19:01:37.596Z,14.53
2019-04-04T19:03:41.468Z,15.73
2019-04-04T19:05:45.311Z,15.90
2019-04-04T19:07:49.242Z,17.93
2019-04-04T19:09:53.199Z,16.33
2019-04-04T19:11:57.055Z,21.33
2019-04-04T19:14:00.899Z,17.33
2019-04-04T19:16:05.027Z,23.47
2019-04-04T19:18:09.001Z,10.37
2019-04-04T19:20:13.463Z,7.50
2019-04-04T19:22:17.479Z,9.00
2019-04-04T19:24:21.500Z,17.47
2019-04-04T19:26:25.424Z,21.43
2019-04-04T19:28:29.283Z,18.20
2019-04-04T19:30:33.283Z,15.93
2019-04-04T19:32:37.391Z,17.30
2019-04-04T19:34:43.644Z,14.77
2019-04-04T19:36:46.855Z,15.27
2019-04-04T19:38:50.787Z,5.47
2019-04-04T19:40:54.764Z,16.30
2019-04-04T19:42:58.697Z,19.83
2019-04-04T19:45:02.643Z,12.27
2019-04-04T19:47:06.719Z,14.00
2019-04-04T19:49:10.587Z,9.10
2019-04-04T19:51:14.683Z,14.03
2019-04-04T19:53:18.671Z,16.00
2019-04-04T19:55:22.863Z,10.73
2019-04-04T19:57:26.819Z,19.20
2019-04-04T19:59:30.679Z,18.07
2019-04-04T20:01:34.558Z,23.13
2019-04-04T20:03:38.733Z,26.53
2019-04-04T20:05:44.451Z,13.87
2019-04-04T20:07:48.219Z,16.30
2019-04-04T20:09:52.155Z,25.97
2019-04-04T20:11:56.058Z,18.50
2019-04-04T20:13:59.949Z,17.47
2019-04-04T20:16:04.192Z,17.17
2019-04-04T20:18:08.197Z,24.00
2019-04-04T20:20:12.201Z,23.53
2019-04-04T20:22:16.068Z,10.23
2019-04-04T20:24:19.907Z,24.37
2019-04-04T20:26:23.746Z,17.93
2019-04-04T20:28:27.859Z,11.63
2019-04-04T20:30:37.063Z,28.93
2019-04-04T20:32:40.919Z,24.30
2019-04-04T20:34:45.075Z,24.30
2019-04-04T20:36:48.916Z,20.70
2019-04-04T20:38:52.779Z,23.87
2019-04-04T20:40:56.716Z,17.67
2019-04-04T20:43:00.573Z,14.77
2019-04-04T20:45:05.618Z,27.37
2019-04-04T20:47:09.599Z,18.20
2019-04-04T20:49:13.559Z,24.90
2019-04-04T20:51:17.427Z,25.17
2019-04-04T20:53:22.310Z,26.40
2019-04-04T20:55:26.523Z,23.10
2019-04-04T20:57:30.387Z,25.27
2019-04-04T20:59:34.271Z,26.00
2019-04-04T21:01:38.127Z,22.53
2019-04-04T21:03:42.064Z,23.13
2019-04-04T21:05:45.907Z,31.73
2019-04-04T21:07:49.879Z,30.20
2019-04-04T21:09:54.014Z,32.77
2019-04-04T21:11:57.947Z,11.53
2019-04-04T21:14:01.811Z,27.30
2019-04-04T21:16:05.749Z,29.13
2019-04-04T21:18:09.644Z,27.50
2019-04-04T21:20:13.643Z,28.17
2019-04-04T21:22:27.314Z,30.60
2019-04-04T21:24:23.283Z,28.70
2019-04-04T21:26:27.195Z,33.83
2019-04-04T21:28:31.104Z,35.20
2019-04-04T21:30:35.209Z,28.63
2019-04-04T21:32:39.200Z,29.83
2019-04-04T21:34:43.050Z,38.33
2019-04-04T21:36:46.943Z,31.93
2019-04-04T21:38:50.859Z,25.57
2019-04-04T21:40:54.906Z,28.53
2019-04-04T21:42:58.872Z,24.10
2019-04-04T21:45:02.814Z,36.13
2019-04-04T21:47:06.762Z,32.43
2019-04-04T21:49:11.709Z,28.20
2019-04-04T21:51:15.575Z,28.63
2019-04-04T21:53:19.551Z,32.37
2019-04-04T21:55:23.491Z,34.50
2019-04-04T21:57:27.461Z,36.33
2019-04-04T21:59:31.346Z,36.53
2019-04-04T22:01:35.335Z,36.60
2019-04-04T22:03:39.236Z,29.00
2019-04-04T22:05:43.244Z,34.37
2019-04-04T22:07:47.280Z,31.73
2019-04-04T22:09:51.152Z,19.40
2019-04-04T22:11:55.083Z,37.37
2019-04-04T22:13:59.011Z,39.77
2019-04-04T22:16:02.877Z,28.73
2019-04-04T22:18:07.155Z,23.43
2019-04-04T22:20:11.340Z,36.97
2019-04-04T22:22:15.363Z,34.33
2019-04-04T22:24:22.175Z,38.03
2019-04-04T22:26:24.939Z,38.70
2019-04-04T22:28:30.354Z,40.13
2019-04-04T22:30:34.479Z,38.60
2019-04-04T22:32:38.362Z,43.93
2019-04-04T22:34:42.272Z,43.90
2019-04-04T22:36:46.143Z,46.17
2019-04-04T22:38:49.999Z,28.03
2019-04-04T22:40:53.905Z,32.73
2019-04-04T22:42:57.775Z,28.20
2019-04-04T22:45:01.779Z,38.80
2019-04-04T22:47:05.675Z,31.00
2019-04-04T22:49:09.573Z,33.93
2019-04-04T22:51:13.411Z,40.40
2019-04-04T22:53:17.301Z,15.83
2019-04-04T22:55:21.287Z,33.40
2019-04-04T22:57:25.123Z,32.20
2019-04-04T22:59:29.027Z,33.23
2019-04-04T23:01:32.903Z,31.63
2019-04-04T23:03:36.904Z,31.20
2019-04-04T23:05:40.883Z,33.10
2019-04-04T23:07:44.778Z,37.93
2019-04-04T23:09:48.631Z,40.27
2019-04-04T23:11:52.443Z,33.90
2019-04-04T23:13:56.332Z,24.50
2019-04-04T23:16:00.278Z,42.83
2019-04-04T23:18:04.182Z,30.30
2019-04-04T23:20:09.310Z,39.97
2019-04-04T23:22:13.223Z,49.47
2019-04-04T23:24:17.197Z,40.23
2019-04-04T23:26:21.167Z,42.60
2019-04-04T23:28:25.132Z,29.87
2019-04-04T23:30:28.955Z,31.60
2019-04-04T23:32:32.851Z,51.93
2019-04-04T23:34:36.750Z,43.50
2019-04-04T23:36:40.599Z,54.00
2019-04-04T23:38:44.448Z,57.70
2019-04-04T23:40:48.322Z,34.57
2019-04-04T23:42:52.169Z,65.17
2019-04-04T23:45:01.086Z,50.03
2019-04-04T23:47:01.623Z,46.53
2019-04-04T23:49:05.504Z,52.40
2019-04-04T23:51:09.419Z,49.40
2019-04-04T23:53:14.570Z,52.80
2019-04-04T23:55:18.480Z,42.73
2019-04-04T23:57:22.323Z,55.03
2019-04-04T23:59:26.203Z,64.10
